Terminal Aerodrome Forecast
Issued by NWS Greer, SC

Home | Current Version | Previous Version | Text Only | Print | Product List | Glossary On
Versions: 1 2 3 4 5 6 7 8 9 10 11 12 13 14 15 16 17 18 19 20 21 22 23 24 25 26 27 28 29 30 31 32
000
FTUS42 KGSP 261129
TAFAVL
TAF
KAVL 261129Z 2612/2712 16008KT P6SM VCSH OVC015
      TEMPO 2612/2615 3SM -SHRA BKN010
     FM261500 18008KT P6SM VCSH BKN030
     FM261800 17008G20KT P6SM -SHRA BKN035 PROB30 2621/2622 4SM TSRA
      OVC025CB
     FM262200 17004KT P6SM BKN020 PROB30 2622/2703 4SM -SHRA OVC010=

USA.gov is the U.S. government's official web portal to all federal, state and local government web resources and services.